Latest Weather Observations for Sydney - Observatory Hill

IDN60901

Issued at 11:01 pm EST Tuesday 7 July 2015 (issued every 10 minutes, with the page automatically refreshed every 10 minutes)

About weather observations | Map of Sydney area stations | Latest observations for Sydney area | Other Formats
Station Details ID: 066062 Name: SYDNEY (OBSERVATORY HILL) Lat: -33.86 Lon: 151.21 Height: 39.0 m
Data from the previous 72 hours. | See also: Recent months at Sydney - Observatory Hill

* Apparent temperature (App Temp) for Sydney - Observatory Hill is calculated using temperature observations collected at Sydney - Observatory Hill and wind observations collected at Fort Denison, as wind observations are not currently provided for Sydney - Observatory Hill.

Date/Time
EST
Tmp

°C
App
Tmp
°C
Dew
Point
°C
Rel
Hum
%
Delta-T

°C
Wind Press
QNH
hPa
Press
MSL
hPa
Rain
since
9 am
mm
Dir
 
Spd
km/h
Gust
km/h
Spd
kts
Gust
kts
07/10:30pm 10.7 7.8 9.6 93 0.6 W 15 - 8 - 1025.5 1025.5 3.2
07/10:00pm 10.7 8.9 9.6 93 0.6 WSW 9 - 5 - 1025.2 1025.2 2.8
07/09:30pm 10.7 8.1 9.5 92 0.6 SSW 13 - 7 - 1025.1 1025.1 2.2
07/09:00pm 10.6 8.7 9.2 91 0.7 SSW 9 - 5 - 1024.8 1024.8 2.0
07/08:30pm 11.0 8.1 9.8 92 0.6 SW 15 - 8 - 1025.0 1025.0 2.0
07/08:00pm 11.1 9.0 9.9 92 0.6 S 11 - 6 - 1024.7 1024.7 1.8
07/07:30pm 11.1 9.0 9.7 91 0.7 W 11 - 6 - 1024.2 1024.2 1.2
07/07:00pm 11.1 8.6 9.7 91 0.7 SSE 13 - 7 - 1024.2 1024.2 1.2
07/06:30pm 11.0 8.4 9.4 90 0.8 W 13 - 7 - 1023.8 1023.8 1.0
07/05:30pm 11.5 8.9 9.4 87 1.1 SSW 13 - 7 - 1023.1 1023.1 0.8
07/05:00pm 11.4 9.1 9.0 85 1.2 SW 11 - 6 - 1022.7 1022.7 0.8
07/04:30pm 11.6 8.2 9.2 85 1.2 SSW 17 - 9 - 1022.6 1022.6 0.8
07/04:00pm 12.0 9.1 9.6 85 1.2 SSW 15 - 8 - 1022.2 1022.2 0.8
07/03:30pm 11.9 8.7 10.0 88 1.0 SSW 17 - 9 - 1022.0 1022.0 0.8
07/03:00pm 11.8 9.6 9.4 85 1.2 SSW 11 - 6 - 1021.7 1021.7 0.4
07/02:30pm 13.3 10.5 8.6 73 2.4 S 13 - 7 - 1021.4 1021.4 0.0
07/02:00pm 13.7 9.6 7.9 68 2.9 SSW 19 - 10 - 1020.9 1020.9 0.0
07/01:30pm 14.3 9.4 6.9 61 3.6 SSW 22 - 12 - 1020.6 1020.6 0.0
07/01:00pm 14.3 9.4 6.9 61 3.6 SSW 22 - 12 - 1020.6 1020.6 0.0
07/12:30pm 13.7 9.3 7.5 66 3.0 SSW 20 - 11 - 1020.5 1020.5 0.0
07/12:00pm 13.4 9.6 7.6 68 2.8 SSW 17 - 9 - 1020.5 1020.5 0.0
07/11:30am 13.0 8.0 7.9 71 2.5 SSW 24 - 13 - 1020.7 1020.7 0.0
07/11:00am 14.1 9.8 6.9 62 3.5 SSW 19 - 10 - 1020.7 1020.7 0.0
07/10:30am 14.2 9.6 3.9 50 4.7 SW 17 - 9 - 1020.7 1020.7 0.0
07/08:00am 9.2 3.4 2.5 63 2.8 W 22 - 12 - 1019.2 1019.3 0.0
07/07:00am 8.3 2.9 2.5 67 2.4 W 20 - 11 - 1018.6 1018.7 0.0
07/06:30am 8.4 2.3 2.8 68 2.4 W 24 - 13 - 1018.2 1018.3 0.0
07/05:30am 8.0 3.2 2.5 68 2.3 W 17 - 9 - 1017.4 1017.5 0.0
07/05:00am 8.2 3.7 2.2 66 2.5 WNW 15 - 8 - 1017.0 1017.1 0.0
07/04:30am 8.1 2.2 1.5 63 2.7 W 22 - 12 - 1016.8 1016.9 0.0
07/04:00am 8.2 3.3 1.8 64 2.6 W 17 - 9 - 1016.7 1016.8 0.0
07/03:30am 8.4 2.9 2.0 64 2.7 W 20 - 11 - 1016.5 1016.6 0.0
07/03:00am 8.5 3.6 2.1 64 2.7 WNW 17 - 9 - 1016.5 1016.6 0.0
07/02:30am 8.5 3.3 2.3 65 2.6 WNW 19 - 10 - 1016.4 1016.5 0.0
07/02:00am 8.4 3.2 2.2 65 2.6 WNW 19 - 10 - 1016.6 1016.7 0.0
07/01:30am 8.4 3.0 2.2 65 2.6 WNW 20 - 11 - 1016.5 1016.6 0.0
07/01:00am 8.4 2.2 2.2 65 2.6 W 24 - 13 - 1016.3 1016.4 0.0
07/12:30am 8.4 2.2 2.0 64 2.7 W 24 - 13 - 1016.4 1016.5 0.0
 
Date/Time
EST
Tmp

°C
App
Tmp
°C
Dew
Point
°C
Rel
Hum
%
Delta-T

°C
Wind Press
QNH
hPa
Press
MSL
hPa
Rain
since
9 am
mm
Dir
 
Spd
km/h
Gust
km/h
Spd
kts
Gust
kts
06/11:30pm 9.1 3.2 1.8 60 3.0 W 22 - 12 - 1016.7 1016.8 0.0
06/11:00pm 9.4 3.5 1.6 58 3.2 W 22 - 12 - 1016.8 1016.9 0.0
06/10:30pm 9.6 3.7 1.8 58 3.3 W 22 - 12 - 1016.6 1016.7 0.0
06/10:00pm 9.8 4.2 1.5 56 3.4 W 20 - 11 - 1016.3 1016.4 0.0
06/09:30pm 10.0 4.7 1.6 56 3.5 W 19 - 10 - 1016.2 1016.3 0.0
06/09:00pm 10.5 5.2 1.6 54 3.7 W 19 - 10 - 1016.2 1016.3 0.0
06/08:30pm 11.0 5.4 1.0 50 4.2 W 20 - 11 - 1016.1 1016.2 0.0
06/08:00pm 11.4 4.9 0.5 47 4.5 W 24 - 13 - 1016.0 1016.1 0.0
06/07:30pm 11.4 5.3 0.2 46 4.6 W 22 - 12 - 1016.0 1016.1 0.0
06/07:00pm 11.9 6.2 0.7 46 4.7 W 20 - 11 - 1015.7 1015.8 0.0
06/06:30pm 12.2 6.7 0.9 46 4.7 WSW 19 - 10 - 1015.6 1015.7 0.0
06/06:00pm 12.6 6.9 0.7 44 5.0 W 20 - 11 - 1015.2 1015.3 0.0
06/05:30pm 13.3 6.9 0.7 42 5.3 WSW 24 - 13 - 1014.7 1014.7 0.0
06/05:00pm 13.9 8.3 0.9 41 5.5 WSW 20 - 11 - 1014.3 1014.3 0.0
06/04:30pm 14.6 9.8 0.1 37 6.1 WSW 15 - 8 - 1014.0 1014.0 0.0
06/04:00pm 15.1 8.6 0.2 36 6.3 WSW 24 - 13 - 1013.6 1013.6 0.0
06/03:30pm 16.6 10.9 0.7 34 6.9 WSW 20 - 11 - 1013.4 1013.4 0.0
06/03:00pm 17.1 11.1 1.1 34 7.1 W 22 - 12 - 1013.3 1013.3 0.0
06/02:30pm 16.7 10.6 0.4 33 7.1 WSW 22 - 12 - 1013.1 1013.1 0.0
06/02:00pm 16.5 10.9 1.0 35 6.8 WSW 20 - 11 - 1013.0 1013.0 0.0
06/01:30pm 16.0 10.4 0.2 34 6.8 W 19 - 10 - 1013.0 1013.0 0.0
06/01:00pm 15.9 11.5 0.5 35 6.6 WNW 13 - 7 - 1013.5 1013.5 0.0
06/12:30pm 14.9 10.4 0.0 36 6.3 NW 13 - 7 - 1013.9 1013.9 0.0
06/12:00pm 13.2 8.4 0.3 41 5.4 WNW 15 - 8 - 1014.4 1014.4 0.0
06/11:30am 12.4 6.9 0.8 45 4.9 W 19 - 10 - 1015.0 1015.1 0.0
06/11:00am 11.8 6.3 0.6 46 4.6 W 19 - 10 - 1015.4 1015.5 0.0
06/10:30am 10.8 5.4 1.1 51 4.0 W 19 - 10 - 1015.7 1015.8 0.0
06/10:00am 10.6 4.9 0.6 50 4.1 W 20 - 11 - 1015.9 1016.0 0.0
06/09:30am 9.6 3.9 0.5 53 3.7 W 20 - 11 - 1016.1 1016.2 0.0
06/09:00am 8.6 3.5 0.8 58 3.1 WNW 17 - 9 - 1016.2 1016.3 0.0
06/08:30am 7.6 3.3 1.2 64 2.6 WNW 13 - 7 - 1016.3 1016.4 0.0
06/08:00am 7.0 3.3 0.2 62 2.7 WNW 9 - 5 - 1016.3 1016.4 0.0
06/07:30am 6.5 2.5 0.6 66 2.3 WNW 11 - 6 - 1016.2 1016.3 0.0
06/07:00am 6.3 3.2 0.4 66 2.3 W 6 - 3 - 1016.1 1016.2 0.0
06/06:30am 6.6 1.9 0.7 66 2.3 WNW 15 - 8 - 1015.9 1016.0 0.0
06/06:00am 7.1 2.3 0.5 63 2.6 W 15 - 8 - 1015.9 1016.0 0.0
06/05:30am 6.9 2.2 1.0 66 2.4 W 15 - 8 - 1015.7 1015.8 0.0
06/05:00am 6.4 1.4 1.1 69 2.1 W 17 - 9 - 1015.8 1015.9 0.0
06/04:30am 6.7 2.0 3.1 78 1.5 W 17 - 9 - 1016.0 1016.1 0.0
06/04:00am 7.5 2.9 3.6 76 1.7 W 17 - 9 - 1016.0 1016.1 0.0
06/03:30am 8.2 3.1 3.3 71 2.1 W 19 - 10 - 1016.3 1016.4 0.0
06/03:00am 7.9 3.6 3.2 72 2.0 W 15 - 8 - 1016.5 1016.6 0.0
06/02:30am 7.8 3.9 3.3 73 1.9 W 13 - 7 - 1016.8 1016.9 0.0
06/02:00am 8.3 3.1 3.8 73 1.9 W 20 - 11 - 1017.2 1017.3 0.0
06/01:30am 8.8 3.9 4.0 72 2.1 W 19 - 10 - 1017.2 1017.3 0.0
06/01:00am 8.8 4.5 5.2 78 1.6 W 17 - 9 - 1017.4 1017.5 0.0
06/12:30am 8.8 3.7 4.2 73 2.0 W 20 - 11 - 1017.6 1017.7 0.0
06/12:00am 8.9 4.5 4.7 75 1.9 W 17 - 9 - 1017.9 1018.0 0.0
 
Date/Time
EST
Tmp

°C
App
Tmp
°C
Dew
Point
°C
Rel
Hum
%
Delta-T

°C
Wind Press
QNH
hPa
Press
MSL
hPa
Rain
since
9 am
mm
Dir
 
Spd
km/h
Gust
km/h
Spd
kts
Gust
kts
05/11:30pm 9.0 4.6 5.0 76 1.8 W 17 - 9 - 1018.0 1018.1 0.0
05/11:00pm 9.1 5.4 6.5 84 1.2 W 15 - 8 - 1018.0 1018.1 0.0
05/10:30pm 9.4 6.2 6.8 84 1.2 WNW 13 - 7 - 1018.0 1018.1 0.0
05/10:00pm 9.7 6.3 7.5 86 1.0 W 15 - 8 - 1017.9 1018.0 0.0
05/09:30pm 10.2 6.7 7.3 82 1.4 W 15 - 8 - 1018.0 1018.1 0.0
05/09:00pm 10.7 8.1 7.9 83 1.4 W 11 - 6 - 1017.9 1018.0 0.0
05/08:30pm 11.3 9.8 7.0 75 2.1 WNW 4 - 2 - 1018.1 1018.2 0.0
05/08:00pm 11.2 9.5 5.7 69 2.5 N 4 - 2 - 1018.1 1018.2 0.0
05/07:30pm 12.3 10.5 5.5 63 3.2 NNW 4 - 2 - 1018.4 1018.5 0.0
05/07:00pm 12.6 10.7 4.8 59 3.6 N 4 - 2 - 1018.4 1018.5 0.0
05/06:30pm 12.8 10.9 4.8 58 3.7 NNW 4 - 2 - 1018.2 1018.3 0.0
05/06:00pm 13.0 10.9 5.9 62 3.3 N 6 - 3 - 1018.0 1018.1 0.0
05/05:30pm 13.9 11.6 5.5 57 4.0 NNW 7 - 4 - 1017.9 1018.0 0.0
05/05:00pm 15.0 12.8 5.2 52 4.6 E 6 - 3 - 1017.9 1018.0 0.0
05/04:30pm 15.4 12.5 4.5 48 5.1 E 9 - 5 - 1017.9 1018.0 0.0
05/04:00pm 15.7 12.3 1.8 39 6.1 E 9 - 5 - 1017.9 1018.0 0.0
05/03:30pm 16.5 13.3 1.0 35 6.8 E 7 - 4 - 1018.0 1018.1 0.0
05/03:00pm 16.6 14.0 1.1 35 6.8 ESE 4 - 2 - 1017.9 1018.0 0.0
05/02:30pm 16.8 14.6 1.3 35 6.8 SE 2 - 1 - 1018.0 1018.1 0.0
05/02:00pm 18.4 16.5 3.1 36 7.1 W 2 - 1 - 1018.1 1018.2 0.0
05/01:30pm 17.1 14.5 3.1 39 6.4 WNW 6 - 3 - 1018.2 1018.3 0.0
05/01:00pm 16.2 12.2 2.9 41 6.0 W 13 - 7 - 1018.7 1018.8 0.0
05/12:30pm 15.1 10.9 3.6 46 5.3 W 15 - 8 - 1019.2 1019.3 0.0
05/12:00pm 12.6 8.5 2.2 49 4.5 W 13 - 7 - 1019.9 1019.9 0.0
05/11:30am 11.6 7.6 2.6 54 3.9 W 13 - 7 - 1020.6 1020.6 0.0
05/11:00am 10.7 5.8 2.0 55 3.7 W 17 - 9 - 1021.3 1021.3 0.0
05/10:30am 9.7 4.8 2.1 59 3.2 W 17 - 9 - 1021.7 1021.7 0.0
05/10:00am 9.1 4.2 2.0 61 3.0 W 17 - 9 - 1022.0 1022.0 0.0
05/09:30am 8.3 3.0 1.7 63 2.7 W 19 - 10 - 1022.2 1022.2 0.0
05/09:00am 7.7 2.2 1.8 66 2.4 W 20 - 11 - 1022.2 1022.2 0.0
05/08:30am 7.2 1.9 1.9 69 2.2 W 19 - 10 - 1022.2 1022.2 0.0
05/08:00am 6.7 1.5 2.2 73 1.8 W 19 - 10 - 1022.2 1022.2 0.0
05/07:30am 6.4 1.8 3.9 84 1.1 W 17 - 9 - 1022.0 1022.0 0.0
05/07:00am 6.1 1.5 3.6 84 1.0 W 17 - 9 - 1021.8 1021.8 0.0
05/06:30am 6.4 1.3 3.0 79 1.4 W 19 - 10 - 1021.6 1021.6 0.0
05/06:00am 6.8 2.4 2.7 75 1.7 W 15 - 8 - 1021.4 1021.4 0.0
05/05:30am 6.6 3.0 2.7 76 1.6 WNW 11 - 6 - 1021.3 1021.3 0.0
05/05:00am 6.5 1.3 2.6 76 1.6 W 19 - 10 - 1021.3 1021.3 0.0
05/04:30am 6.5 0.8 2.6 76 1.6 W 22 - 12 - 1021.3 1021.3 0.0
05/04:00am 7.0 0.9 2.5 73 1.9 WNW 24 - 13 - 1021.2 1021.2 0.0
05/03:30am 7.6 1.4 2.3 69 2.2 W 24 - 13 - 1021.3 1021.3 0.0
05/03:00am 7.7 2.3 2.2 68 2.3 W 20 - 11 - 1021.4 1021.4 0.0
05/02:30am 7.8 2.5 1.9 66 2.4 W 19 - 10 - 1021.5 1021.5 0.0
05/02:00am 8.0 2.7 2.0 66 2.5 W 19 - 10 - 1021.6 1021.6 0.0
05/01:30am 8.2 2.7 2.0 65 2.6 W 20 - 11 - 1021.8 1021.8 0.0
05/01:00am 8.3 2.8 2.1 65 2.6 W 20 - 11 - 1021.7 1021.7 0.0
05/12:30am 8.5 3.2 1.6 62 2.8 W 19 - 10 - 1021.7 1021.7 0.0
05/12:00am 8.6 2.7 2.0 63 2.7 W 22 - 12 - 1021.7 1021.7 0.0
 
Date/Time
EST
Tmp

°C
App
Tmp
°C
Dew
Point
°C
Rel
Hum
%
Delta-T

°C
Wind Press
QNH
hPa
Press
MSL
hPa
Rain
since
9 am
mm
Dir
 
Spd
km/h
Gust
km/h
Spd
kts
Gust
kts
04/11:30pm 8.8 3.3 1.9 62 2.9 W 20 - 11 - 1022.0 1022.0 0.0

Latest Capital City Observations: Canberra | Sydney | Melbourne | Brisbane | Adelaide | Perth | Hobart | Darwin

Other Formats:

Comma delimited format used in spreadsheet applications
http://www.bom.gov.au/fwo/IDN60901/IDN60901.94768.axf

JavaScript Object Notation format (JSON) in row-major order
http://www.bom.gov.au/fwo/IDN60901/IDN60901.94768.json